sensor_id;sensor_type;location;lat;lon;timestamp;temperature;humidity
1602;DHT22;794;48.592;9.634;2023-08-17T00:01:42;18.40;1.00
1602;DHT22;794;48.592;9.634;2023-08-17T00:04:10;18.60;1.00
1602;DHT22;794;48.592;9.634;2023-08-17T00:06:43;18.60;1.00
1602;DHT22;794;48.592;9.634;2023-08-17T00:09:18;18.60;1.00
1602;DHT22;794;48.592;9.634;2023-08-17T00:11:48;18.70;1.00
1602;DHT22;794;48.592;9.634;2023-08-17T00:14:15;18.60;1.00
1602;DHT22;794;48.592;9.634;2023-08-17T00:16:56;18.40;1.00
1602;DHT22;794;48.592;9.634;2023-08-17T00:19:28;18.40;1.00
1602;DHT22;794;48.592;9.634;2023-08-17T00:21:55;18.80;1.00
1602;DHT22;794;48.592;9.634;2023-08-17T00:24:27;18.30;1.00
1602;DHT22;794;48.592;9.634;2023-08-17T00:26:54;18.30;1.00
1602;DHT22;794;48.592;9.634;2023-08-17T00:29:24;18.10;1.00
1602;DHT22;794;48.592;9.634;2023-08-17T00:31:53;19.60;1.00
1602;DHT22;794;48.592;9.634;2023-08-17T00:34:20;18.10;1.00
1602;DHT22;794;48.592;9.634;2023-08-17T00:36:48;18.00;1.00
1602;DHT22;794;48.592;9.634;2023-08-17T00:39:15;18.10;1.00
1602;DHT22;794;48.592;9.634;2023-08-17T00:41:47;18.00;1.00
1602;DHT22;794;48.592;9.634;2023-08-17T00:44:13;18.00;1.00
1602;DHT22;794;48.592;9.634;2023-08-17T00:46:41;18.10;1.00
1602;DHT22;794;48.592;9.634;2023-08-17T00:49:08;16.70;1.00
1602;DHT22;794;48.592;9.634;2023-08-17T00:51:35;17.90;1.00
1602;DHT22;794;48.592;9.634;2023-08-17T00:54:05;17.90;1.00
1602;DHT22;794;48.592;9.634;2023-08-17T00:56:36;17.90;1.00
1602;DHT22;794;48.592;9.634;2023-08-17T00:59:04;17.80;1.00
1602;DHT22;794;48.592;9.634;2023-08-17T01:01:34;17.70;1.00
1602;DHT22;794;48.592;9.634;2023-08-17T01:04:01;17.80;1.00
1602;DHT22;794;48.592;9.634;2023-08-17T01:06:28;17.80;1.00
1602;DHT22;794;48.592;9.634;2023-08-17T01:08:55;17.80;1.00
1602;DHT22;794;48.592;9.634;2023-08-17T01:11:34;17.70;1.00
1602;DHT22;794;48.592;9.634;2023-08-17T01:14:08;17.50;1.00
1602;DHT22;794;48.592;9.634;2023-08-17T01:16:43;17.30;1.00
1602;DHT22;794;48.592;9.634;2023-08-17T01:19:24;17.50;1.00
1602;DHT22;794;48.592;9.634;2023-08-17T01:21:55;17.20;1.00
1602;DHT22;794;48.592;9.634;2023-08-17T01:24:25;17.10;1.00
1602;DHT22;794;48.592;9.634;2023-08-17T01:26:55;17.30;1.00
1602;DHT22;794;48.592;9.634;2023-08-17T01:29:24;17.30;1.00
1602;DHT22;794;48.592;9.634;2023-08-17T01:32:01;17.30;1.00
1602;DHT22;794;48.592;9.634;2023-08-17T01:34:33;17.30;1.00
1602;DHT22;794;48.592;9.634;2023-08-17T01:37:03;17.20;1.00
1602;DHT22;794;48.592;9.634;2023-08-17T01:39:39;17.30;1.00
1602;DHT22;794;48.592;9.634;2023-08-17T01:42:09;17.40;1.00
1602;DHT22;794;48.592;9.634;2023-08-17T01:44:39;17.40;1.00
1602;DHT22;794;48.592;9.634;2023-08-17T01:47:06;17.30;1.00
1602;DHT22;794;48.592;9.634;2023-08-17T01:49:33;17.50;1.00
1602;DHT22;794;48.592;9.634;2023-08-17T01:52:00;17.30;1.00
1602;DHT22;794;48.592;9.634;2023-08-17T01:54:30;17.10;1.00
1602;DHT22;794;48.592;9.634;2023-08-17T01:57:01;17.10;1.00
1602;DHT22;794;48.592;9.634;2023-08-17T01:59:28;17.20;1.00
1602;DHT22;794;48.592;9.634;2023-08-17T02:01:55;17.20;1.00
1602;DHT22;794;48.592;9.634;2023-08-17T02:04:24;17.10;1.00
1602;DHT22;794;48.592;9.634;2023-08-17T02:06:54;17.20;1.00
1602;DHT22;794;48.592;9.634;2023-08-17T02:09:21;17.30;1.00
1602;DHT22;794;48.592;9.634;2023-08-17T02:11:49;17.10;1.00
1602;DHT22;794;48.592;9.634;2023-08-17T02:14:17;16.90;1.00
1602;DHT22;794;48.592;9.634;2023-08-17T02:16:44;17.00;1.00
1602;DHT22;794;48.592;9.634;2023-08-17T02:19:13;16.90;1.00
1602;DHT22;794;48.592;9.634;2023-08-17T02:21:40;16.90;1.00
1602;DHT22;794;48.592;9.634;2023-08-17T02:24:09;16.70;1.00
1602;DHT22;794;48.592;9.634;2023-08-17T02:26:36;16.70;1.00
1602;DHT22;794;48.592;9.634;2023-08-17T02:29:04;16.80;1.00
1602;DHT22;794;48.592;9.634;2023-08-17T02:31:35;16.80;1.00
1602;DHT22;794;48.592;9.634;2023-08-17T02:34:02;17.00;1.00
1602;DHT22;794;48.592;9.634;2023-08-17T02:36:31;17.00;1.00
1602;DHT22;794;48.592;9.634;2023-08-17T02:38:58;16.90;1.00
1602;DHT22;794;48.592;9.634;2023-08-17T02:41:25;17.00;1.00
1602;DHT22;794;48.592;9.634;2023-08-17T02:43:54;16.80;1.00
1602;DHT22;794;48.592;9.634;2023-08-17T02:46:21;16.70;1.00
1602;DHT22;794;48.592;9.634;2023-08-17T02:48:49;16.80;1.00
1602;DHT22;794;48.592;9.634;2023-08-17T02:51:19;16.70;1.00
1602;DHT22;794;48.592;9.634;2023-08-17T02:53:49;16.90;1.00
1602;DHT22;794;48.592;9.634;2023-08-17T02:56:19;16.70;1.00
1602;DHT22;794;48.592;9.634;2023-08-17T02:58:46;16.70;1.00
1602;DHT22;794;48.592;9.634;2023-08-17T03:01:13;16.70;1.00
1602;DHT22;794;48.592;9.634;2023-08-17T03:03:40;16.70;1.00
1602;DHT22;794;48.592;9.634;2023-08-17T03:06:08;16.60;1.00
1602;DHT22;794;48.592;9.634;2023-08-17T03:08:35;16.50;1.00
1602;DHT22;794;48.592;9.634;2023-08-17T03:11:04;16.60;1.00
1602;DHT22;794;48.592;9.634;2023-08-17T03:13:32;16.60;1.00
1602;DHT22;794;48.592;9.634;2023-08-17T03:15:59;16.50;1.00
1602;DHT22;794;48.592;9.634;2023-08-17T03:18:29;16.20;1.00
1602;DHT22;794;48.592;9.634;2023-08-17T03:20:59;16.50;1.00
1602;DHT22;794;48.592;9.634;2023-08-17T03:23:28;16.40;1.00
1602;DHT22;794;48.592;9.634;2023-08-17T03:25:55;16.40;1.00
1602;DHT22;794;48.592;9.634;2023-08-17T03:28:24;16.40;1.00
1602;DHT22;794;48.592;9.634;2023-08-17T03:30:54;16.30;1.00
1602;DHT22;794;48.592;9.634;2023-08-17T03:33:24;16.50;1.00
1602;DHT22;794;48.592;9.634;2023-08-17T03:35:55;16.40;1.00
1602;DHT22;794;48.592;9.634;2023-08-17T03:38:24;14.90;1.00
1602;DHT22;794;48.592;9.634;2023-08-17T03:40:53;15.90;1.00
1602;DHT22;794;48.592;9.634;2023-08-17T03:43:20;16.30;1.00
1602;DHT22;794;48.592;9.634;2023-08-17T03:45:50;16.30;1.00
1602;DHT22;794;48.592;9.634;2023-08-17T03:48:19;16.30;1.00
1602;DHT22;794;48.592;9.634;2023-08-17T03:50:54;16.30;1.00
1602;DHT22;794;48.592;9.634;2023-08-17T03:53:21;15.80;1.00
1602;DHT22;794;48.592;9.634;2023-08-17T03:55:48;16.30;1.00
1602;DHT22;794;48.592;9.634;2023-08-17T03:58:18;16.30;1.00
1602;DHT22;794;48.592;9.634;2023-08-17T04:00:49;16.30;1.00
1602;DHT22;794;48.592;9.634;2023-08-17T04:03:16;16.30;1.00
1602;DHT22;794;48.592;9.634;2023-08-17T04:05:43;16.30;1.00
1602;DHT22;794;48.592;9.634;2023-08-17T04:08:10;16.30;1.00
1602;DHT22;794;48.592;9.634;2023-08-17T04:10:39;16.20;1.00
1602;DHT22;794;48.592;9.634;2023-08-17T04:13:06;16.20;1.00
1602;DHT22;794;48.592;9.634;2023-08-17T04:15:34;16.30;1.00
1602;DHT22;794;48.592;9.634;2023-08-17T04:18:03;16.30;1.00
1602;DHT22;794;48.592;9.634;2023-08-17T04:20:30;16.30;1.00
1602;DHT22;794;48.592;9.634;2023-08-17T04:22:58;16.30;1.00
1602;DHT22;794;48.592;9.634;2023-08-17T04:25:25;16.30;1.00
1602;DHT22;794;48.592;9.634;2023-08-17T04:27:55;16.30;1.00
1602;DHT22;794;48.592;9.634;2023-08-17T04:30:24;16.40;1.00
1602;DHT22;794;48.592;9.634;2023-08-17T04:32:53;16.30;1.00
1602;DHT22;794;48.592;9.634;2023-08-17T04:35:20;16.30;1.00
1602;DHT22;794;48.592;9.634;2023-08-17T04:37:47;16.30;1.00
1602;DHT22;794;48.592;9.634;2023-08-17T04:40:14;16.30;1.00
1602;DHT22;794;48.592;9.634;2023-08-17T04:42:41;16.40;1.00
1602;DHT22;794;48.592;9.634;2023-08-17T04:45:11;16.50;1.00
1602;DHT22;794;48.592;9.634;2023-08-17T04:47:38;16.60;1.00
1602;DHT22;794;48.592;9.634;2023-08-17T04:50:10;16.80;1.00
1602;DHT22;794;48.592;9.634;2023-08-17T04:52:44;16.70;1.00
1602;DHT22;794;48.592;9.634;2023-08-17T04:55:11;16.60;1.00
1602;DHT22;794;48.592;9.634;2023-08-17T04:57:38;16.60;1.00
1602;DHT22;794;48.592;9.634;2023-08-17T05:00:10;16.70;1.00
1602;DHT22;794;48.592;9.634;2023-08-17T05:02:38;17.90;1.00
1602;DHT22;794;48.592;9.634;2023-08-17T05:05:10;16.90;1.00
1602;DHT22;794;48.592;9.634;2023-08-17T05:07:40;17.00;1.00
1602;DHT22;794;48.592;9.634;2023-08-17T05:10:09;17.10;1.00
1602;DHT22;794;48.592;9.634;2023-08-17T05:12:40;17.10;1.00
1602;DHT22;794;48.592;9.634;2023-08-17T05:15:10;17.10;1.00
1602;DHT22;794;48.592;9.634;2023-08-17T05:17:40;17.20;1.00
1602;DHT22;794;48.592;9.634;2023-08-17T05:20:11;17.30;1.00
1602;DHT22;794;48.592;9.634;2023-08-17T05:22:40;17.30;1.00
1602;DHT22;794;48.592;9.634;2023-08-17T05:25:09;17.50;1.00
1602;DHT22;794;48.592;9.634;2023-08-17T05:27:36;17.70;1.00
1602;DHT22;794;48.592;9.634;2023-08-17T05:30:09;17.60;1.00
1602;DHT22;794;48.592;9.634;2023-08-17T05:32:36;17.60;1.00
1602;DHT22;794;48.592;9.634;2023-08-17T05:35:06;17.80;1.00
1602;DHT22;794;48.592;9.634;2023-08-17T05:37:34;17.80;1.00
1602;DHT22;794;48.592;9.634;2023-08-17T05:40:05;17.90;1.00
1602;DHT22;794;48.592;9.634;2023-08-17T05:42:34;18.10;1.00
1602;DHT22;794;48.592;9.634;2023-08-17T05:45:04;20.30;1.00
1602;DHT22;794;48.592;9.634;2023-08-17T05:47:31;18.40;1.00
1602;DHT22;794;48.592;9.634;2023-08-17T05:49:59;18.60;1.00
1602;DHT22;794;48.592;9.634;2023-08-17T05:52:31;18.90;1.00
1602;DHT22;794;48.592;9.634;2023-08-17T05:54:59;18.50;1.00
1602;DHT22;794;48.592;9.634;2023-08-17T05:57:26;19.00;1.00
1602;DHT22;794;48.592;9.634;2023-08-17T05:59:53;18.90;1.00
1602;DHT22;794;48.592;9.634;2023-08-17T06:02:20;19.00;1.00
1602;DHT22;794;48.592;9.634;2023-08-17T06:04:50;19.40;1.00
1602;DHT22;794;48.592;9.634;2023-08-17T06:07:20;19.40;1.00
1602;DHT22;794;48.592;9.634;2023-08-17T06:09:50;19.70;1.00
1602;DHT22;794;48.592;9.634;2023-08-17T06:12:24;19.80;1.00
1602;DHT22;794;48.592;9.634;2023-08-17T06:14:54;20.10;1.00
1602;DHT22;794;48.592;9.634;2023-08-17T06:17:21;20.00;1.00
1602;DHT22;794;48.592;9.634;2023-08-17T06:19:48;20.20;1.00
1602;DHT22;794;48.592;9.634;2023-08-17T06:22:15;20.50;1.00
1602;DHT22;794;48.592;9.634;2023-08-17T06:24:48;20.90;1.00
1602;DHT22;794;48.592;9.634;2023-08-17T06:27:18;21.10;1.00
1602;DHT22;794;48.592;9.634;2023-08-17T06:29:48;21.10;1.00
1602;DHT22;794;48.592;9.634;2023-08-17T06:32:16;20.90;1.00
1602;DHT22;794;48.592;9.634;2023-08-17T06:34:45;21.00;1.00
1602;DHT22;794;48.592;9.634;2023-08-17T06:37:21;21.20;1.00
1602;DHT22;794;48.592;9.634;2023-08-17T06:39:48;21.60;1.00
1602;DHT22;794;48.592;9.634;2023-08-17T06:42:15;21.90;1.00
1602;DHT22;794;48.592;9.634;2023-08-17T06:44:43;22.20;1.00
1602;DHT22;794;48.592;9.634;2023-08-17T06:47:13;22.00;1.00
1602;DHT22;794;48.592;9.634;2023-08-17T06:49:40;22.70;1.00
1602;DHT22;794;48.592;9.634;2023-08-17T06:52:10;23.50;1.00
1602;DHT22;794;48.592;9.634;2023-08-17T06:54:44;25.40;1.00
1602;DHT22;794;48.592;9.634;2023-08-17T06:57:26;28.10;1.00
1602;DHT22;794;48.592;9.634;2023-08-17T07:00:53;30.60;1.00
1602;DHT22;794;48.592;9.634;2023-08-17T07:03:01;32.00;1.00
1602;DHT22;794;48.592;9.634;2023-08-17T07:05:49;32.00;1.00
1602;DHT22;794;48.592;9.634;2023-08-17T07:08:20;33.00;1.00
1602;DHT22;794;48.592;9.634;2023-08-17T07:10:48;33.90;1.00
1602;DHT22;794;48.592;9.634;2023-08-17T07:20:12;36.90;1.00
1602;DHT22;794;48.592;9.634;2023-08-17T07:22:46;36.40;1.00
1602;DHT22;794;48.592;9.634;2023-08-17T07:25:16;37.40;1.00
1602;DHT22;794;48.592;9.634;2023-08-17T07:27:49;38.10;1.00
1602;DHT22;794;48.592;9.634;2023-08-17T07:30:24;35.20;1.00
1602;DHT22;794;48.592;9.634;2023-08-17T07:32:55;33.40;1.00
1602;DHT22;794;48.592;9.634;2023-08-17T07:35:23;32.10;1.00
1602;DHT22;794;48.592;9.634;2023-08-17T07:38:02;30.10;1.00
1602;DHT22;794;48.592;9.634;2023-08-17T07:40:30;30.80;1.00
1602;DHT22;794;48.592;9.634;2023-08-17T07:43:00;33.10;1.00
1602;DHT22;794;48.592;9.634;2023-08-17T07:45:30;32.60;1.00
1602;DHT22;794;48.592;9.634;2023-08-17T07:48:00;35.40;1.00
1602;DHT22;794;48.592;9.634;2023-08-17T07:50:29;32.60;1.00
1602;DHT22;794;48.592;9.634;2023-08-17T07:52:59;31.80;1.00
1602;DHT22;794;48.592;9.634;2023-08-17T07:55:26;31.80;1.00
1602;DHT22;794;48.592;9.634;2023-08-17T07:57:59;31.30;1.00
1602;DHT22;794;48.592;9.634;2023-08-17T08:00:26;32.10;1.00
1602;DHT22;794;48.592;9.634;2023-08-17T08:03:00;32.50;1.00
1602;DHT22;794;48.592;9.634;2023-08-17T08:05:31;31.80;1.00
1602;DHT22;794;48.592;9.634;2023-08-17T08:08:01;31.00;1.00
1602;DHT22;794;48.592;9.634;2023-08-17T08:10:28;30.80;1.00
1602;DHT22;794;48.592;9.634;2023-08-17T08:12:55;30.80;1.00
1602;DHT22;794;48.592;9.634;2023-08-17T08:15:23;30.80;1.00
1602;DHT22;794;48.592;9.634;2023-08-17T08:17:50;31.50;1.00
1602;DHT22;794;48.592;9.634;2023-08-17T08:20:20;32.60;1.00
1602;DHT22;794;48.592;9.634;2023-08-17T08:22:51;34.50;1.00
1602;DHT22;794;48.592;9.634;2023-08-17T08:25:18;36.30;1.00
1602;DHT22;794;48.592;9.634;2023-08-17T08:27:45;37.20;1.00
1602;DHT22;794;48.592;9.634;2023-08-17T08:30:15;37.30;1.00
1602;DHT22;794;48.592;9.634;2023-08-17T08:32:45;37.60;1.00
1602;DHT22;794;48.592;9.634;2023-08-17T08:35:15;37.70;1.00
1602;DHT22;794;48.592;9.634;2023-08-17T08:37:44;38.10;1.00
1602;DHT22;794;48.592;9.634;2023-08-17T08:40:28;37.00;1.00
1602;DHT22;794;48.592;9.634;2023-08-17T08:43:32;37.90;1.00
1602;DHT22;794;48.592;9.634;2023-08-17T08:46:22;40.10;1.00
1602;DHT22;794;48.592;9.634;2023-08-17T08:52:28;37.90;1.00
1602;DHT22;794;48.592;9.634;2023-08-17T08:55:21;37.80;1.00
1602;DHT22;794;48.592;9.634;2023-08-17T08:58:28;39.90;1.00
1602;DHT22;794;48.592;9.634;2023-08-17T09:01:02;41.10;1.00
1602;DHT22;794;48.592;9.634;2023-08-17T09:03:46;41.20;1.00
1602;DHT22;794;48.592;9.634;2023-08-17T09:06:18;40.90;1.00
1602;DHT22;794;48.592;9.634;2023-08-17T09:12:21;39.40;1.00
1602;DHT22;794;48.592;9.634;2023-08-17T09:15:49;37.60;1.00
1602;DHT22;794;48.592;9.634;2023-08-17T09:18:27;39.10;1.00
1602;DHT22;794;48.592;9.634;2023-08-17T09:21:00;39.60;1.00
1602;DHT22;794;48.592;9.634;2023-08-17T09:23:32;37.70;1.00
1602;DHT22;794;48.592;9.634;2023-08-17T09:26:11;37.60;1.00
1602;DHT22;794;48.592;9.634;2023-08-17T09:28:51;36.30;1.00
1602;DHT22;794;48.592;9.634;2023-08-17T09:31:31;39.00;1.00
1602;DHT22;794;48.592;9.634;2023-08-17T09:34:05;38.50;1.00
1602;DHT22;794;48.592;9.634;2023-08-17T09:36:35;38.20;1.00
1602;DHT22;794;48.592;9.634;2023-08-17T09:39:17;38.10;1.00
1602;DHT22;794;48.592;9.634;2023-08-17T09:41:45;36.10;1.00
1602;DHT22;794;48.592;9.634;2023-08-17T09:44:14;36.80;1.00
1602;DHT22;794;48.592;9.634;2023-08-17T09:46:51;37.30;1.00
1602;DHT22;794;48.592;9.634;2023-08-17T09:49:24;36.80;1.00
1602;DHT22;794;48.592;9.634;2023-08-17T09:51:51;36.40;1.00
1602;DHT22;794;48.592;9.634;2023-08-17T09:57:08;36.10;1.00
1602;DHT22;794;48.592;9.634;2023-08-17T09:59:38;35.80;1.00
1602;DHT22;794;48.592;9.634;2023-08-17T10:02:15;35.60;1.00
1602;DHT22;794;48.592;9.634;2023-08-17T10:04:46;33.10;1.00
1602;DHT22;794;48.592;9.634;2023-08-17T10:07:23;35.10;1.00
1602;DHT22;794;48.592;9.634;2023-08-17T10:10:02;35.80;1.00
1602;DHT22;794;48.592;9.634;2023-08-17T10:12:36;34.80;1.00
1602;DHT22;794;48.592;9.634;2023-08-17T10:15:11;34.00;1.00
1602;DHT22;794;48.592;9.634;2023-08-17T10:17:55;35.00;1.00
1602;DHT22;794;48.592;9.634;2023-08-17T10:20:31;34.60;1.00
1602;DHT22;794;48.592;9.634;2023-08-17T10:23:07;33.80;1.00
1602;DHT22;794;48.592;9.634;2023-08-17T10:25:39;33.60;1.00
1602;DHT22;794;48.592;9.634;2023-08-17T10:28:08;33.40;1.00
1602;DHT22;794;48.592;9.634;2023-08-17T10:30:37;33.40;1.00
1602;DHT22;794;48.592;9.634;2023-08-17T10:33:15;32.80;1.00
1602;DHT22;794;48.592;9.634;2023-08-17T10:35:46;33.50;1.00
1602;DHT22;794;48.592;9.634;2023-08-17T10:38:15;32.30;1.00
1602;DHT22;794;48.592;9.634;2023-08-17T10:41:08;32.00;1.00
1602;DHT22;794;48.592;9.634;2023-08-17T10:43:53;31.90;1.00
1602;DHT22;794;48.592;9.634;2023-08-17T10:46:20;31.40;1.00
1602;DHT22;794;48.592;9.634;2023-08-17T10:48:53;30.70;1.00
1602;DHT22;794;48.592;9.634;2023-08-17T10:51:34;30.60;1.00
1602;DHT22;794;48.592;9.634;2023-08-17T10:54:06;30.40;1.00
1602;DHT22;794;48.592;9.634;2023-08-17T10:56:40;30.10;1.00
1602;DHT22;794;48.592;9.634;2023-08-17T10:59:27;30.10;1.00
1602;DHT22;794;48.592;9.634;2023-08-17T11:01:54;30.00;1.00
1602;DHT22;794;48.592;9.634;2023-08-17T11:04:26;29.80;1.00
1602;DHT22;794;48.592;9.634;2023-08-17T11:07:05;29.90;1.00
1602;DHT22;794;48.592;9.634;2023-08-17T11:09:43;32.00;1.00
1602;DHT22;794;48.592;9.634;2023-08-17T11:12:25;30.60;1.00
1602;DHT22;794;48.592;9.634;2023-08-17T11:14:57;30.90;1.00
1602;DHT22;794;48.592;9.634;2023-08-17T11:17:33;30.30;1.00
1602;DHT22;794;48.592;9.634;2023-08-17T11:20:33;29.90;1.00
1602;DHT22;794;48.592;9.634;2023-08-17T11:23:14;29.70;1.00
1602;DHT22;794;48.592;9.634;2023-08-17T11:25:41;29.50;1.00
1602;DHT22;794;48.592;9.634;2023-08-17T11:28:29;29.50;1.00
1602;DHT22;794;48.592;9.634;2023-08-17T11:31:08;29.40;1.00
1602;DHT22;794;48.592;9.634;2023-08-17T11:33:44;29.40;1.00
1602;DHT22;794;48.592;9.634;2023-08-17T11:36:13;29.60;1.00
1602;DHT22;794;48.592;9.634;2023-08-17T11:38:43;29.10;1.00
1602;DHT22;794;48.592;9.634;2023-08-17T11:41:18;29.30;1.00
1602;DHT22;794;48.592;9.634;2023-08-17T11:44:09;29.20;1.00
1602;DHT22;794;48.592;9.634;2023-08-17T11:46:46;28.80;1.00
1602;DHT22;794;48.592;9.634;2023-08-17T11:49:48;29.00;1.00
1602;DHT22;794;48.592;9.634;2023-08-17T11:52:25;29.00;1.00
1602;DHT22;794;48.592;9.634;2023-08-17T11:55:08;29.00;1.00
1602;DHT22;794;48.592;9.634;2023-08-17T11:57:38;29.20;1.00
1602;DHT22;794;48.592;9.634;2023-08-17T12:00:21;29.10;1.00
1602;DHT22;794;48.592;9.634;2023-08-17T12:03:04;28.70;1.00
1602;DHT22;794;48.592;9.634;2023-08-17T12:05:44;29.00;1.00
1602;DHT22;794;48.592;9.634;2023-08-17T12:08:24;30.60;1.00
1602;DHT22;794;48.592;9.634;2023-08-17T12:11:09;29.00;1.00
1602;DHT22;794;48.592;9.634;2023-08-17T12:14:08;29.00;1.00
1602;DHT22;794;48.592;9.634;2023-08-17T12:16:44;27.10;1.00
1602;DHT22;794;48.592;9.634;2023-08-17T12:19:11;28.40;1.00
1602;DHT22;794;48.592;9.634;2023-08-17T12:21:52;28.70;1.00
1602;DHT22;794;48.592;9.634;2023-08-17T13:24:03;25.10;1.00
1602;DHT22;794;48.592;9.634;2023-08-17T13:26:55;25.10;1.00
1602;DHT22;794;48.592;9.634;2023-08-17T13:29:30;25.80;1.00
1602;DHT22;794;48.592;9.634;2023-08-17T13:32:03;23.40;1.00
1602;DHT22;794;48.592;9.634;2023-08-17T13:34:40;24.70;1.00
1602;DHT22;794;48.592;9.634;2023-08-17T13:37:26;23.10;1.00
1602;DHT22;794;48.592;9.634;2023-08-17T13:39:55;24.50;1.00
1602;DHT22;794;48.592;9.634;2023-08-17T13:42:23;24.50;1.00
1602;DHT22;794;48.592;9.634;2023-08-17T13:48:16;22.50;1.00
1602;DHT22;794;48.592;9.634;2023-08-17T13:50:55;24.30;1.00
1602;DHT22;794;48.592;9.634;2023-08-17T13:53:26;24.40;1.00
1602;DHT22;794;48.592;9.634;2023-08-17T13:59:31;24.50;1.00
1602;DHT22;794;48.592;9.634;2023-08-17T14:02:00;22.20;1.00
1602;DHT22;794;48.592;9.634;2023-08-17T14:04:35;23.90;1.00
1602;DHT22;794;48.592;9.634;2023-08-17T14:07:04;23.70;1.00
1602;DHT22;794;48.592;9.634;2023-08-17T14:09:31;23.70;1.00
1602;DHT22;794;48.592;9.634;2023-08-17T14:12:01;23.80;1.00
1602;DHT22;794;48.592;9.634;2023-08-17T14:14:31;23.80;1.00
1602;DHT22;794;48.592;9.634;2023-08-17T14:16:58;23.70;1.00
1602;DHT22;794;48.592;9.634;2023-08-17T14:19:25;22.70;1.00
1602;DHT22;794;48.592;9.634;2023-08-17T14:21:55;23.60;1.00
1602;DHT22;794;48.592;9.634;2023-08-17T14:24:26;23.90;1.00
1602;DHT22;794;48.592;9.634;2023-08-17T14:26:55;23.70;1.00
1602;DHT22;794;48.592;9.634;2023-08-17T14:29:23;23.70;1.00
1602;DHT22;794;48.592;9.634;2023-08-17T14:31:58;23.60;1.00
1602;DHT22;794;48.592;9.634;2023-08-17T14:34:25;22.80;1.00
1602;DHT22;794;48.592;9.634;2023-08-17T14:36:54;23.40;1.00
1602;DHT22;794;48.592;9.634;2023-08-17T14:39:25;23.30;1.00
1602;DHT22;794;48.592;9.634;2023-08-17T14:41:54;23.40;1.00
1602;DHT22;794;48.592;9.634;2023-08-17T14:44:21;23.10;1.00
1602;DHT22;794;48.592;9.634;2023-08-17T14:46:48;23.20;1.00
1602;DHT22;794;48.592;9.634;2023-08-17T14:49:20;23.20;1.00
1602;DHT22;794;48.592;9.634;2023-08-17T14:51:47;23.10;1.00
1602;DHT22;794;48.592;9.634;2023-08-17T14:54:16;22.90;1.00
1602;DHT22;794;48.592;9.634;2023-08-17T14:56:43;22.90;1.00
1602;DHT22;794;48.592;9.634;2023-08-17T14:59:10;22.80;1.00
1602;DHT22;794;48.592;9.634;2023-08-17T15:01:40;22.60;1.00
1602;DHT22;794;48.592;9.634;2023-08-17T15:04:07;21.20;1.00
1602;DHT22;794;48.592;9.634;2023-08-17T15:06:40;22.70;1.00
1602;DHT22;794;48.592;9.634;2023-08-17T15:09:09;22.80;1.00
1602;DHT22;794;48.592;9.634;2023-08-17T15:11:36;22.80;1.00
1602;DHT22;794;48.592;9.634;2023-08-17T15:14:06;21.60;1.00
1602;DHT22;794;48.592;9.634;2023-08-17T15:16:34;22.50;1.00
1602;DHT22;794;48.592;9.634;2023-08-17T15:19:01;22.60;1.00
1602;DHT22;794;48.592;9.634;2023-08-17T15:21:31;22.80;1.00
1602;DHT22;794;48.592;9.634;2023-08-17T15:24:01;22.30;1.00
1602;DHT22;794;48.592;9.634;2023-08-17T15:26:31;22.70;1.00
1602;DHT22;794;48.592;9.634;2023-08-17T15:28:59;22.30;1.00
1602;DHT22;794;48.592;9.634;2023-08-17T15:31:26;22.60;1.00
1602;DHT22;794;48.592;9.634;2023-08-17T15:33:53;22.70;1.00
1602;DHT22;794;48.592;9.634;2023-08-17T15:36:20;22.60;1.00
1602;DHT22;794;48.592;9.634;2023-08-17T15:38:52;22.80;1.00
1602;DHT22;794;48.592;9.634;2023-08-17T15:41:23;22.60;1.00
1602;DHT22;794;48.592;9.634;2023-08-17T15:43:50;22.80;1.00
1602;DHT22;794;48.592;9.634;2023-08-17T15:46:20;22.80;1.00
1602;DHT22;794;48.592;9.634;2023-08-17T15:48:50;22.20;1.00
1602;DHT22;794;48.592;9.634;2023-08-17T15:51:20;22.60;1.00
1602;DHT22;794;48.592;9.634;2023-08-17T15:53:47;23.10;1.00
1602;DHT22;794;48.592;9.634;2023-08-17T15:56:13;22.50;1.00
1602;DHT22;794;48.592;9.634;2023-08-17T15:58:42;22.60;1.00
1602;DHT22;794;48.592;9.634;2023-08-17T16:01:09;22.70;1.00
1602;DHT22;794;48.592;9.634;2023-08-17T16:03:36;22.50;1.00
1602;DHT22;794;48.592;9.634;2023-08-17T16:06:03;22.80;1.00
1602;DHT22;794;48.592;9.634;2023-08-17T16:08:30;22.90;1.00
1602;DHT22;794;48.592;9.634;2023-08-17T16:10:59;22.70;1.00
1602;DHT22;794;48.592;9.634;2023-08-17T16:13:27;23.00;1.00
1602;DHT22;794;48.592;9.634;2023-08-17T16:15:58;22.80;1.00
1602;DHT22;794;48.592;9.634;2023-08-17T16:18:25;22.90;1.00
1602;DHT22;794;48.592;9.634;2023-08-17T16:20:55;23.20;1.00
1602;DHT22;794;48.592;9.634;2023-08-17T16:23:25;23.40;1.00
1602;DHT22;794;48.592;9.634;2023-08-17T16:25:52;23.30;1.00
1602;DHT22;794;48.592;9.634;2023-08-17T16:28:24;23.60;1.00
1602;DHT22;794;48.592;9.634;2023-08-17T16:30:51;23.70;1.00
1602;DHT22;794;48.592;9.634;2023-08-17T16:33:20;23.70;1.00
1602;DHT22;794;48.592;9.634;2023-08-17T16:35:47;24.00;1.00
1602;DHT22;794;48.592;9.634;2023-08-17T16:38:19;23.90;1.00
1602;DHT22;794;48.592;9.634;2023-08-17T16:40:47;24.20;1.00
1602;DHT22;794;48.592;9.634;2023-08-17T16:43:15;24.00;1.00
1602;DHT22;794;48.592;9.634;2023-08-17T16:45:44;24.20;1.00
1602;DHT22;794;48.592;9.634;2023-08-17T16:48:11;24.30;1.00
1602;DHT22;794;48.592;9.634;2023-08-17T16:50:40;24.20;1.00
1602;DHT22;794;48.592;9.634;2023-08-17T16:56:18;23.70;1.00
1602;DHT22;794;48.592;9.634;2023-08-17T16:58:45;23.80;1.00
1602;DHT22;794;48.592;9.634;2023-08-17T17:01:12;23.90;1.00
1602;DHT22;794;48.592;9.634;2023-08-17T17:03:47;23.80;1.00
1602;DHT22;794;48.592;9.634;2023-08-17T17:06:16;23.60;1.00
1602;DHT22;794;48.592;9.634;2023-08-17T17:08:51;23.50;1.00
1602;DHT22;794;48.592;9.634;2023-08-17T17:11:19;23.80;1.00
1602;DHT22;794;48.592;9.634;2023-08-17T17:13:54;23.50;1.00
1602;DHT22;794;48.592;9.634;2023-08-17T17:16:21;23.60;1.00
1602;DHT22;794;48.592;9.634;2023-08-17T17:18:48;23.60;1.00
1602;DHT22;794;48.592;9.634;2023-08-17T17:21:41;23.80;1.00
1602;DHT22;794;48.592;9.634;2023-08-17T17:24:18;23.70;1.00
1602;DHT22;794;48.592;9.634;2023-08-17T17:26:48;24.50;1.00
1602;DHT22;794;48.592;9.634;2023-08-17T17:29:23;23.50;1.00
1602;DHT22;794;48.592;9.634;2023-08-17T17:31:54;23.30;1.00
1602;DHT22;794;48.592;9.634;2023-08-17T17:34:37;23.10;1.00
1602;DHT22;794;48.592;9.634;2023-08-17T17:37:29;21.60;1.00
1602;DHT22;794;48.592;9.634;2023-08-17T17:40:17;23.30;1.00
1602;DHT22;794;48.592;9.634;2023-08-17T17:43:16;23.10;1.00
1602;DHT22;794;48.592;9.634;2023-08-17T17:45:57;23.20;1.00
1602;DHT22;794;48.592;9.634;2023-08-17T17:48:31;23.50;1.00
1602;DHT22;794;48.592;9.634;2023-08-17T17:54:40;21.40;1.00
1602;DHT22;794;48.592;9.634;2023-08-17T17:57:16;22.90;1.00
1602;DHT22;794;48.592;9.634;2023-08-17T17:59:52;23.40;1.00
1602;DHT22;794;48.592;9.634;2023-08-17T18:02:26;23.10;1.00
1602;DHT22;794;48.592;9.634;2023-08-17T18:04:54;23.10;1.00
1602;DHT22;794;48.592;9.634;2023-08-17T18:07:39;23.10;1.00
1602;DHT22;794;48.592;9.634;2023-08-17T18:10:10;22.90;1.00
1602;DHT22;794;48.592;9.634;2023-08-17T18:12:40;23.00;1.00
1602;DHT22;794;48.592;9.634;2023-08-17T18:15:11;23.00;1.00
1602;DHT22;794;48.592;9.634;2023-08-17T18:17:47;22.70;1.00
1602;DHT22;794;48.592;9.634;2023-08-17T18:20:18;22.90;1.00
1602;DHT22;794;48.592;9.634;2023-08-17T18:22:45;22.90;1.00
1602;DHT22;794;48.592;9.634;2023-08-17T18:25:13;22.50;1.00
1602;DHT22;794;48.592;9.634;2023-08-17T18:27:41;22.70;1.00
1602;DHT22;794;48.592;9.634;2023-08-17T18:30:11;22.30;1.00
1602;DHT22;794;48.592;9.634;2023-08-17T18:32:42;22.40;1.00
1602;DHT22;794;48.592;9.634;2023-08-17T18:35:12;22.50;1.00